Santa Maria de Cayon, Spain
Current Conditions -  °F | °C
As of 3:00 PM on Thursday 27 Nov 2014 (Local Time) from LEXJ Reporting Station
Clear Clear  
Wind Chill: 63°   Ceiling: Unl
Heat Index: 63°   Visibility: 6mi
Dew Point: 46°   Wind: 5mph
Humidity: 55%   Direction: 110°ESE
Pressure: 29.32"   Gusts: 28mph
Location:  43.31°N, 3.84°W
Report Text: LEXJ 271400Z 11004G24KT CAVOK 17/08 Q0993
Loading
Personal Weather Stations






























Interactive Weather Map New forecast layout! Learn more

10-Day Weather Forecast

Advertisements
Track Severe Weather on mobile